sensor_id;sensor_type;location;lat;lon;timestamp;pressure;altitude;pressure_sealevel;temperature
77414;BMP280;66486;49.992;19.164;2023-06-14T00:01:53;98817.00;;;11.50
77414;BMP280;66486;49.992;19.164;2023-06-14T00:04:19;98819.13;;;11.74
77414;BMP280;66486;49.992;19.164;2023-06-14T00:06:46;98818.69;;;11.60
77414;BMP280;66486;49.992;19.164;2023-06-14T00:09:12;98805.81;;;11.67
77414;BMP280;66486;49.992;19.164;2023-06-14T00:11:42;98814.75;;;11.97
77414;BMP280;66486;49.992;19.164;2023-06-14T00:14:08;98818.34;;;12.06
77414;BMP280;66486;49.992;19.164;2023-06-14T00:16:34;98810.66;;;12.21
77414;BMP280;66486;49.992;19.164;2023-06-14T00:19:03;98811.56;;;12.46
77414;BMP280;66486;49.992;19.164;2023-06-14T00:21:31;98805.78;;;12.32
77414;BMP280;66486;49.992;19.164;2023-06-14T00:23:58;98813.53;;;12.14
77414;BMP280;66486;49.992;19.164;2023-06-14T00:26:24;98794.09;;;11.58
77414;BMP280;66486;49.992;19.164;2023-06-14T00:28:53;98803.59;;;11.30
77414;BMP280;66486;49.992;19.164;2023-06-14T00:31:19;98805.53;;;11.10
77414;BMP280;66486;49.992;19.164;2023-06-14T00:33:45;98807.13;;;11.07
77414;BMP280;66486;49.992;19.164;2023-06-14T00:36:10;98813.09;;;10.99
77414;BMP280;66486;49.992;19.164;2023-06-14T00:38:37;98797.34;;;10.97
77414;BMP280;66486;49.992;19.164;2023-06-14T00:41:03;98803.34;;;11.24
77414;BMP280;66486;49.992;19.164;2023-06-14T00:43:29;98803.94;;;11.48
77414;BMP280;66486;49.992;19.164;2023-06-14T00:45:55;98804.69;;;11.49
77414;BMP280;66486;49.992;19.164;2023-06-14T00:48:22;98800.75;;;11.69
77414;BMP280;66486;49.992;19.164;2023-06-14T00:50:49;98801.03;;;11.75
77414;BMP280;66486;49.992;19.164;2023-06-14T00:53:17;98803.28;;;11.92
77414;BMP280;66486;49.992;19.164;2023-06-14T00:55:43;98794.59;;;11.85
77414;BMP280;66486;49.992;19.164;2023-06-14T00:58:10;98793.28;;;12.38
77414;BMP280;66486;49.992;19.164;2023-06-14T01:00:36;98801.59;;;12.59
77414;BMP280;66486;49.992;19.164;2023-06-14T01:03:03;98787.06;;;12.25
77414;BMP280;66486;49.992;19.164;2023-06-14T01:05:29;98788.22;;;11.95
77414;BMP280;66486;49.992;19.164;2023-06-14T01:10:37;98794.34;;;12.40
77414;BMP280;66486;49.992;19.164;2023-06-14T01:13:27;98792.53;;;12.66
77414;BMP280;66486;49.992;19.164;2023-06-14T01:15:55;98793.38;;;12.63
77414;BMP280;66486;49.992;19.164;2023-06-14T01:18:22;98782.91;;;12.36
77414;BMP280;66486;49.992;19.164;2023-06-14T01:20:49;98787.28;;;12.02
77414;BMP280;66486;49.992;19.164;2023-06-14T01:23:17;98779.97;;;11.86
77414;BMP280;66486;49.992;19.164;2023-06-14T01:25:43;98793.25;;;11.93
77414;BMP280;66486;49.992;19.164;2023-06-14T01:28:11;98784.75;;;12.39
77414;BMP280;66486;49.992;19.164;2023-06-14T01:30:41;98785.31;;;12.88
77414;BMP280;66486;49.992;19.164;2023-06-14T01:33:15;98793.22;;;13.08
77414;BMP280;66486;49.992;19.164;2023-06-14T01:35:46;98789.28;;;12.42
77414;BMP280;66486;49.992;19.164;2023-06-14T01:38:17;98792.03;;;12.26
77414;BMP280;66486;49.992;19.164;2023-06-14T01:40:45;98792.31;;;12.00
77414;BMP280;66486;49.992;19.164;2023-06-14T01:43:13;98786.44;;;12.05
77414;BMP280;66486;49.992;19.164;2023-06-14T01:45:40;98785.63;;;12.20
77414;BMP280;66486;49.992;19.164;2023-06-14T01:48:07;98772.88;;;12.37
77414;BMP280;66486;49.992;19.164;2023-06-14T01:50:33;98791.59;;;12.85
77414;BMP280;66486;49.992;19.164;2023-06-14T01:52:59;98786.19;;;12.98
77414;BMP280;66486;49.992;19.164;2023-06-14T01:55:26;98780.94;;;13.19
77414;BMP280;66486;49.992;19.164;2023-06-14T01:57:53;98783.31;;;13.30
77414;BMP280;66486;49.992;19.164;2023-06-14T02:00:20;98784.84;;;13.44
77414;BMP280;66486;49.992;19.164;2023-06-14T02:02:46;98782.31;;;13.49
77414;BMP280;66486;49.992;19.164;2023-06-14T02:05:13;98779.50;;;13.65
77414;BMP280;66486;49.992;19.164;2023-06-14T02:07:38;98773.31;;;13.52
77414;BMP280;66486;49.992;19.164;2023-06-14T02:10:05;98771.09;;;13.51
77414;BMP280;66486;49.992;19.164;2023-06-14T02:12:31;98779.72;;;13.58
77414;BMP280;66486;49.992;19.164;2023-06-14T02:14:57;98770.09;;;13.70
77414;BMP280;66486;49.992;19.164;2023-06-14T02:17:23;98765.34;;;13.95
77414;BMP280;66486;49.992;19.164;2023-06-14T02:19:49;98773.38;;;13.99
77414;BMP280;66486;49.992;19.164;2023-06-14T02:22:16;98774.72;;;14.03
77414;BMP280;66486;49.992;19.164;2023-06-14T02:24:43;98772.25;;;14.09
77414;BMP280;66486;49.992;19.164;2023-06-14T02:27:09;98777.06;;;14.14
77414;BMP280;66486;49.992;19.164;2023-06-14T02:29:38;98773.44;;;13.95
77414;BMP280;66486;49.992;19.164;2023-06-14T02:32:05;98774.09;;;13.99
77414;BMP280;66486;49.992;19.164;2023-06-14T02:34:35;98776.38;;;14.01
77414;BMP280;66486;49.992;19.164;2023-06-14T02:37:02;98777.19;;;13.89
77414;BMP280;66486;49.992;19.164;2023-06-14T02:39:29;98777.63;;;13.87
77414;BMP280;66486;49.992;19.164;2023-06-14T02:41:55;98777.63;;;13.87
77414;BMP280;66486;49.992;19.164;2023-06-14T02:44:25;98771.44;;;13.87
77414;BMP280;66486;49.992;19.164;2023-06-14T02:46:54;98774.22;;;13.96
77414;BMP280;66486;49.992;19.164;2023-06-14T02:49:21;98782.81;;;13.94
77414;BMP280;66486;49.992;19.164;2023-06-14T02:51:47;98778.84;;;13.95
77414;BMP280;66486;49.992;19.164;2023-06-14T02:54:14;98773.06;;;13.84
77414;BMP280;66486;49.992;19.164;2023-06-14T02:56:40;98771.00;;;13.88
77414;BMP280;66486;49.992;19.164;2023-06-14T02:59:07;98778.16;;;13.95
77414;BMP280;66486;49.992;19.164;2023-06-14T03:01:34;98770.03;;;13.95
77414;BMP280;66486;49.992;19.164;2023-06-14T03:04:01;98765.03;;;13.93
77414;BMP280;66486;49.992;19.164;2023-06-14T03:06:29;98767.06;;;14.02
77414;BMP280;66486;49.992;19.164;2023-06-14T03:08:59;98773.25;;;14.02
77414;BMP280;66486;49.992;19.164;2023-06-14T03:11:27;98767.22;;;13.86
77414;BMP280;66486;49.992;19.164;2023-06-14T03:13:53;98775.53;;;13.57
77414;BMP280;66486;49.992;19.164;2023-06-14T03:16:19;98771.91;;;13.73
77414;BMP280;66486;49.992;19.164;2023-06-14T03:18:51;98773.00;;;13.75
77414;BMP280;66486;49.992;19.164;2023-06-14T03:21:18;98778.66;;;13.90
77414;BMP280;66486;49.992;19.164;2023-06-14T03:23:45;98775.97;;;13.90
77414;BMP280;66486;49.992;19.164;2023-06-14T03:26:11;98780.19;;;13.91
77414;BMP280;66486;49.992;19.164;2023-06-14T03:28:41;98777.25;;;13.98
77414;BMP280;66486;49.992;19.164;2023-06-14T03:31:07;98778.78;;;13.99
77414;BMP280;66486;49.992;19.164;2023-06-14T03:33:34;98779.38;;;14.03
77414;BMP280;66486;49.992;19.164;2023-06-14T03:36:01;98776.38;;;14.01
77414;BMP280;66486;49.992;19.164;2023-06-14T03:38:28;98774.41;;;14.01
77414;BMP280;66486;49.992;19.164;2023-06-14T03:40:54;98773.38;;;13.99
77414;BMP280;66486;49.992;19.164;2023-06-14T03:43:20;98781.81;;;13.88
77414;BMP280;66486;49.992;19.164;2023-06-14T03:45:46;98786.91;;;13.99
77414;BMP280;66486;49.992;19.164;2023-06-14T03:48:12;98785.31;;;14.11
77414;BMP280;66486;49.992;19.164;2023-06-14T03:50:38;98784.25;;;14.08
77414;BMP280;66486;49.992;19.164;2023-06-14T03:53:04;98781.25;;;14.06
77414;BMP280;66486;49.992;19.164;2023-06-14T03:55:30;98787.88;;;14.14
77414;BMP280;66486;49.992;19.164;2023-06-14T03:57:59;98790.31;;;14.12
77414;BMP280;66486;49.992;19.164;2023-06-14T04:00:25;98794.31;;;14.07
77414;BMP280;66486;49.992;19.164;2023-06-14T04:02:52;98797.53;;;14.15
77414;BMP280;66486;49.992;19.164;2023-06-14T04:05:18;98799.94;;;14.13
77414;BMP280;66486;49.992;19.164;2023-06-14T04:07:45;98797.53;;;14.15
77414;BMP280;66486;49.992;19.164;2023-06-14T04:10:12;98803.19;;;14.08
77414;BMP280;66486;49.992;19.164;2023-06-14T04:12:39;98795.09;;;13.95
77414;BMP280;66486;49.992;19.164;2023-06-14T04:15:06;98812.91;;;14.18
77414;BMP280;66486;49.992;19.164;2023-06-14T04:17:33;98804.63;;;14.34
77414;BMP280;66486;49.992;19.164;2023-06-14T04:20:00;98801.41;;;14.14
77414;BMP280;66486;49.992;19.164;2023-06-14T04:22:27;98805.59;;;14.06
77414;BMP280;66486;49.992;19.164;2023-06-14T04:24:57;98807.41;;;14.09
77414;BMP280;66486;49.992;19.164;2023-06-14T04:27:24;98806.94;;;14.23
77414;BMP280;66486;49.992;19.164;2023-06-14T04:29:52;98803.44;;;14.35
77414;BMP280;66486;49.992;19.164;2023-06-14T04:32:26;98792.78;;;14.41
77414;BMP280;66486;49.992;19.164;2023-06-14T04:34:55;98801.63;;;14.54
77414;BMP280;66486;49.992;19.164;2023-06-14T04:37:22;98796.31;;;14.72
77414;BMP280;66486;49.992;19.164;2023-06-14T04:39:48;98796.94;;;14.54
77414;BMP280;66486;49.992;19.164;2023-06-14T04:42:14;98795.09;;;14.30
77414;BMP280;66486;49.992;19.164;2023-06-14T04:44:42;98794.78;;;14.06
77414;BMP280;66486;49.992;19.164;2023-06-14T04:47:10;98791.59;;;14.42
77414;BMP280;66486;49.992;19.164;2023-06-14T04:49:38;98795.56;;;14.81
77414;BMP280;66486;49.992;19.164;2023-06-14T04:52:06;98797.13;;;14.91
77414;BMP280;66486;49.992;19.164;2023-06-14T04:54:33;98793.56;;;15.03
77414;BMP280;66486;49.992;19.164;2023-06-14T04:56:59;98795.44;;;14.84
77414;BMP280;66486;49.992;19.164;2023-06-14T04:59:25;98795.66;;;14.68
77414;BMP280;66486;49.992;19.164;2023-06-14T05:01:51;98800.22;;;14.80
77414;BMP280;66486;49.992;19.164;2023-06-14T05:04:18;98806.34;;;14.93
77414;BMP280;66486;49.992;19.164;2023-06-14T05:06:45;98801.19;;;15.17
77414;BMP280;66486;49.992;19.164;2023-06-14T05:09:14;98796.13;;;15.37
77414;BMP280;66486;49.992;19.164;2023-06-14T05:11:41;98803.03;;;15.78
77414;BMP280;66486;49.992;19.164;2023-06-14T05:14:11;98804.63;;;15.75
77414;BMP280;66486;49.992;19.164;2023-06-14T05:16:37;98799.94;;;15.48
77414;BMP280;66486;49.992;19.164;2023-06-14T05:19:04;98811.59;;;15.85
77414;BMP280;66486;49.992;19.164;2023-06-14T05:21:30;98812.06;;;15.84
77414;BMP280;66486;49.992;19.164;2023-06-14T05:23:59;98809.97;;;15.30
77414;BMP280;66486;49.992;19.164;2023-06-14T05:26:26;98809.25;;;15.47
77414;BMP280;66486;49.992;19.164;2023-06-14T05:28:58;98798.34;;;14.90
77414;BMP280;66486;49.992;19.164;2023-06-14T05:31:27;98814.22;;;14.78
77414;BMP280;66486;49.992;19.164;2023-06-14T05:33:54;98830.00;;;15.23
77414;BMP280;66486;49.992;19.164;2023-06-14T05:36:20;98825.88;;;15.59
77414;BMP280;66486;49.992;19.164;2023-06-14T05:38:46;98829.06;;;15.75
77414;BMP280;66486;49.992;19.164;2023-06-14T05:41:13;98830.91;;;15.96
77414;BMP280;66486;49.992;19.164;2023-06-14T05:43:38;98838.31;;;15.96
77414;BMP280;66486;49.992;19.164;2023-06-14T05:46:05;98831.81;;;16.11
77414;BMP280;66486;49.992;19.164;2023-06-14T05:48:31;98841.78;;;15.96
77414;BMP280;66486;49.992;19.164;2023-06-14T05:50:58;98821.88;;;16.08
77414;BMP280;66486;49.992;19.164;2023-06-14T05:53:24;98833.03;;;16.01
77414;BMP280;66486;49.992;19.164;2023-06-14T05:55:50;98826.69;;;16.32
77414;BMP280;66486;49.992;19.164;2023-06-14T05:58:19;98833.16;;;16.52
77414;BMP280;66486;49.992;19.164;2023-06-14T06:00:45;98829.41;;;16.50
77414;BMP280;66486;49.992;19.164;2023-06-14T06:03:11;98825.16;;;16.58
77414;BMP280;66486;49.992;19.164;2023-06-14T06:05:39;98822.25;;;16.79
77414;BMP280;66486;49.992;19.164;2023-06-14T06:08:05;98821.88;;;17.37
77414;BMP280;66486;49.992;19.164;2023-06-14T06:10:32;98827.84;;;17.18
77414;BMP280;66486;49.992;19.164;2023-06-14T06:12:57;98818.69;;;17.06
77414;BMP280;66486;49.992;19.164;2023-06-14T06:15:24;98826.44;;;16.89
77414;BMP280;66486;49.992;19.164;2023-06-14T06:17:50;98823.22;;;17.00
77414;BMP280;66486;49.992;19.164;2023-06-14T06:20:16;98824.31;;;17.35
77414;BMP280;66486;49.992;19.164;2023-06-14T06:22:43;98826.69;;;17.33
77414;BMP280;66486;49.992;19.164;2023-06-14T06:25:10;98824.91;;;17.30
77414;BMP280;66486;49.992;19.164;2023-06-14T06:27:36;98832.47;;;17.35
77414;BMP280;66486;49.992;19.164;2023-06-14T06:30:03;98833.16;;;17.92
77414;BMP280;66486;49.992;19.164;2023-06-14T06:32:29;98835.81;;;18.01
77414;BMP280;66486;49.992;19.164;2023-06-14T06:34:56;98844.72;;;18.02
77414;BMP280;66486;49.992;19.164;2023-06-14T06:37:21;98828.16;;;17.91
77414;BMP280;66486;49.992;19.164;2023-06-14T06:39:47;98841.84;;;17.81
77414;BMP280;66486;49.992;19.164;2023-06-14T06:42:13;98843.53;;;17.79
77414;BMP280;66486;49.992;19.164;2023-06-14T06:44:39;98849.59;;;17.18
77414;BMP280;66486;49.992;19.164;2023-06-14T06:47:05;98841.34;;;17.36
77414;BMP280;66486;49.992;19.164;2023-06-14T06:49:32;98849.09;;;17.61
77414;BMP280;66486;49.992;19.164;2023-06-14T06:52:03;98846.69;;;18.01
77414;BMP280;66486;49.992;19.164;2023-06-14T06:54:29;98846.38;;;17.61
77414;BMP280;66486;49.992;19.164;2023-06-14T06:56:55;98841.75;;;17.43
77414;BMP280;66486;49.992;19.164;2023-06-14T06:59:22;98855.59;;;17.54
77414;BMP280;66486;49.992;19.164;2023-06-14T07:01:47;98856.97;;;17.82
77414;BMP280;66486;49.992;19.164;2023-06-14T07:04:14;98856.06;;;17.85
77414;BMP280;66486;49.992;19.164;2023-06-14T07:06:41;98865.75;;;17.54
77414;BMP280;66486;49.992;19.164;2023-06-14T07:09:07;98863.78;;;17.54
77414;BMP280;66486;49.992;19.164;2023-06-14T07:11:42;98870.84;;;17.28
77414;BMP280;66486;49.992;19.164;2023-06-14T07:14:08;98867.91;;;17.08
77414;BMP280;66486;49.992;19.164;2023-06-14T07:16:34;98868.13;;;17.37
77414;BMP280;66486;49.992;19.164;2023-06-14T07:19:02;98870.38;;;16.88
77414;BMP280;66486;49.992;19.164;2023-06-14T07:21:28;98880.25;;;16.76
77414;BMP280;66486;49.992;19.164;2023-06-14T07:23:54;98870.50;;;16.93
77414;BMP280;66486;49.992;19.164;2023-06-14T07:26:21;98873.75;;;16.65
77414;BMP280;66486;49.992;19.164;2023-06-14T07:28:48;98877.19;;;16.74
77414;BMP280;66486;49.992;19.164;2023-06-14T07:31:17;98887.59;;;16.94
77414;BMP280;66486;49.992;19.164;2023-06-14T07:33:45;98891.13;;;16.49
77414;BMP280;66486;49.992;19.164;2023-06-14T07:36:11;98890.38;;;15.64
77414;BMP280;66486;49.992;19.164;2023-06-14T07:38:37;98892.97;;;15.06
77414;BMP280;66486;49.992;19.164;2023-06-14T07:41:03;98899.97;;;15.16
77414;BMP280;66486;49.992;19.164;2023-06-14T07:43:29;98903.72;;;15.40
77414;BMP280;66486;49.992;19.164;2023-06-14T07:45:55;98901.81;;;15.59
77414;BMP280;66486;49.992;19.164;2023-06-14T07:48:22;98900.91;;;16.10
77414;BMP280;66486;49.992;19.164;2023-06-14T07:50:48;98908.03;;;16.35
77414;BMP280;66486;49.992;19.164;2023-06-14T07:53:14;98903.63;;;16.56
77414;BMP280;66486;49.992;19.164;2023-06-14T07:55:40;98889.16;;;16.13
77414;BMP280;66486;49.992;19.164;2023-06-14T07:58:09;98904.84;;;16.46
77414;BMP280;66486;49.992;19.164;2023-06-14T08:00:36;98901.09;;;16.25
77414;BMP280;66486;49.992;19.164;2023-06-14T08:03:03;98895.47;;;16.19
77414;BMP280;66486;49.992;19.164;2023-06-14T08:05:29;98896.25;;;16.56
77414;BMP280;66486;49.992;19.164;2023-06-14T08:07:56;98897.00;;;16.20
77414;BMP280;66486;49.992;19.164;2023-06-14T08:10:22;98895.75;;;16.12
77414;BMP280;66486;49.992;19.164;2023-06-14T08:12:49;98895.53;;;15.71
77414;BMP280;66486;49.992;19.164;2023-06-14T08:15:18;98893.97;;;16.09
77414;BMP280;66486;49.992;19.164;2023-06-14T08:17:45;98894.06;;;16.96
77414;BMP280;66486;49.992;19.164;2023-06-14T08:20:11;98890.03;;;17.25
77414;BMP280;66486;49.992;19.164;2023-06-14T08:22:39;98886.72;;;17.62
77414;BMP280;66486;49.992;19.164;2023-06-14T08:25:08;98883.44;;;17.82
77414;BMP280;66486;49.992;19.164;2023-06-14T08:27:35;98889.44;;;18.10
77414;BMP280;66486;49.992;19.164;2023-06-14T08:30:01;98892.84;;;18.05
77414;BMP280;66486;49.992;19.164;2023-06-14T08:32:28;98891.72;;;18.11
77414;BMP280;66486;49.992;19.164;2023-06-14T08:34:55;98900.81;;;17.84
77414;BMP280;66486;49.992;19.164;2023-06-14T08:37:21;98902.06;;;18.22
77414;BMP280;66486;49.992;19.164;2023-06-14T08:39:47;98894.53;;;18.17
77414;BMP280;66486;49.992;19.164;2023-06-14T08:42:14;98900.31;;;18.10
77414;BMP280;66486;49.992;19.164;2023-06-14T08:44:40;98902.13;;;18.36
77414;BMP280;66486;49.992;19.164;2023-06-14T08:47:07;98904.34;;;18.38
77414;BMP280;66486;49.992;19.164;2023-06-14T08:49:36;98903.59;;;18.23
77414;BMP280;66486;49.992;19.164;2023-06-14T08:52:05;98910.94;;;18.46
77414;BMP280;66486;49.992;19.164;2023-06-14T08:54:34;98908.78;;;18.50
77414;BMP280;66486;49.992;19.164;2023-06-14T08:57:05;98917.81;;;18.41
77414;BMP280;66486;49.992;19.164;2023-06-14T08:59:32;98909.06;;;18.37
77414;BMP280;66486;49.992;19.164;2023-06-14T09:02:06;98916.56;;;18.28
77414;BMP280;66486;49.992;19.164;2023-06-14T09:04:32;98918.66;;;18.33
77414;BMP280;66486;49.992;19.164;2023-06-14T09:06:59;98918.53;;;18.27
77414;BMP280;66486;49.992;19.164;2023-06-14T09:09:26;98914.34;;;18.41
77414;BMP280;66486;49.992;19.164;2023-06-14T09:11:52;98922.63;;;18.46
77414;BMP280;66486;49.992;19.164;2023-06-14T09:14:19;98927.41;;;18.37
77414;BMP280;66486;49.992;19.164;2023-06-14T09:16:45;98923.19;;;18.50
77414;BMP280;66486;49.992;19.164;2023-06-14T09:19:22;98924.25;;;18.06
77414;BMP280;66486;49.992;19.164;2023-06-14T09:21:49;98915.94;;;18.09
77414;BMP280;66486;49.992;19.164;2023-06-14T09:24:15;98933.44;;;17.19
77414;BMP280;66486;49.992;19.164;2023-06-14T09:26:41;98935.31;;;16.86
77414;BMP280;66486;49.992;19.164;2023-06-14T09:29:09;98933.44;;;17.19
77414;BMP280;66486;49.992;19.164;2023-06-14T09:31:35;98926.97;;;17.17
77414;BMP280;66486;49.992;19.164;2023-06-14T09:34:02;98934.88;;;17.47
77414;BMP280;66486;49.992;19.164;2023-06-14T09:36:31;98930.19;;;17.80
77414;BMP280;66486;49.992;19.164;2023-06-14T09:38:59;98923.53;;;17.72
77414;BMP280;66486;49.992;19.164;2023-06-14T09:41:35;98927.78;;;18.21
77414;BMP280;66486;49.992;19.164;2023-06-14T09:44:03;98924.34;;;18.35
77414;BMP280;66486;49.992;19.164;2023-06-14T09:46:30;98917.88;;;18.85
77414;BMP280;66486;49.992;19.164;2023-06-14T09:49:00;98924.19;;;19.40
77414;BMP280;66486;49.992;19.164;2023-06-14T09:51:27;98914.66;;;19.01
77414;BMP280;66486;49.992;19.164;2023-06-14T09:53:58;98917.25;;;19.25
77414;BMP280;66486;49.992;19.164;2023-06-14T09:56:31;98922.91;;;19.21
77414;BMP280;66486;49.992;19.164;2023-06-14T09:58:58;98920.72;;;19.40
77414;BMP280;66486;49.992;19.164;2023-06-14T10:01:25;98925.84;;;19.18
77414;BMP280;66486;49.992;19.164;2023-06-14T10:03:57;98920.84;;;19.31
77414;BMP280;66486;49.992;19.164;2023-06-14T10:06:25;98921.81;;;19.13
77414;BMP280;66486;49.992;19.164;2023-06-14T10:08:57;98925.13;;;18.35
77414;BMP280;66486;49.992;19.164;2023-06-14T10:11:25;98926.22;;;18.29
77414;BMP280;66486;49.992;19.164;2023-06-14T10:13:51;98920.81;;;18.43
77414;BMP280;66486;49.992;19.164;2023-06-14T10:16:28;98924.88;;;18.24
77414;BMP280;66486;49.992;19.164;2023-06-14T10:19:04;98921.63;;;18.88
77414;BMP280;66486;49.992;19.164;2023-06-14T10:21:38;98928.31;;;19.01
77414;BMP280;66486;49.992;19.164;2023-06-14T10:24:13;98930.03;;;18.60
77414;BMP280;66486;49.992;19.164;2023-06-14T10:26:52;98929.78;;;18.73
77414;BMP280;66486;49.992;19.164;2023-06-14T10:29:19;98923.75;;;18.54
77414;BMP280;66486;49.992;19.164;2023-06-14T10:31:47;98926.59;;;17.98
77414;BMP280;66486;49.992;19.164;2023-06-14T10:34:27;98919.38;;;17.62
77414;BMP280;66486;49.992;19.164;2023-06-14T10:37:06;98918.84;;;17.73
77414;BMP280;66486;49.992;19.164;2023-06-14T10:39:38;98911.44;;;17.73
77414;BMP280;66486;49.992;19.164;2023-06-14T10:42:05;98907.03;;;18.23
77414;BMP280;66486;49.992;19.164;2023-06-14T10:44:42;98913.31;;;18.53
77414;BMP280;66486;49.992;19.164;2023-06-14T10:47:31;98913.69;;;18.08
77414;BMP280;66486;49.992;19.164;2023-06-14T10:52:33;98898.78;;;18.85
77414;BMP280;66486;49.992;19.164;2023-06-14T10:55:09;98905.22;;;19.17
77414;BMP280;66486;49.992;19.164;2023-06-14T10:57:38;98897.81;;;19.03
77414;BMP280;66486;49.992;19.164;2023-06-14T11:00:06;98911.63;;;18.41
77414;BMP280;66486;49.992;19.164;2023-06-14T11:11:00;98890.06;;;19.16
77414;BMP280;66486;49.992;19.164;2023-06-14T11:13:26;98886.50;;;19.79
77414;BMP280;66486;49.992;19.164;2023-06-14T11:15:52;98881.97;;;20.16
77414;BMP280;66486;49.992;19.164;2023-06-14T11:18:21;98884.66;;;19.91
77414;BMP280;66486;49.992;19.164;2023-06-14T11:20:50;98886.16;;;20.63
77414;BMP280;66486;49.992;19.164;2023-06-14T11:23:16;98879.63;;;19.84
77414;BMP280;66486;49.992;19.164;2023-06-14T11:25:42;98886.50;;;19.79
77414;BMP280;66486;49.992;19.164;2023-06-14T11:28:08;98871.28;;;19.73
77414;BMP280;66486;49.992;19.164;2023-06-14T11:30:35;98883.28;;;19.26
77414;BMP280;66486;49.992;19.164;2023-06-14T11:33:01;98881.47;;;18.88
77414;BMP280;66486;49.992;19.164;2023-06-14T11:35:27;98881.06;;;19.79
77414;BMP280;66486;49.992;19.164;2023-06-14T11:37:55;98874.41;;;19.86
77414;BMP280;66486;49.992;19.164;2023-06-14T11:40:25;98871.91;;;19.47
77414;BMP280;66486;49.992;19.164;2023-06-14T11:42:59;98879.84;;;19.66
77414;BMP280;66486;49.992;19.164;2023-06-14T11:45:26;98877.31;;;20.48
77414;BMP280;66486;49.992;19.164;2023-06-14T11:47:55;98877.06;;;21.08
77414;BMP280;66486;49.992;19.164;2023-06-14T11:50:25;98880.56;;;21.09
77414;BMP280;66486;49.992;19.164;2023-06-14T11:52:56;98867.63;;;20.78
77414;BMP280;66486;49.992;19.164;2023-06-14T11:55:22;98865.22;;;20.86
77414;BMP280;66486;49.992;19.164;2023-06-14T11:57:49;98870.66;;;21.17
77414;BMP280;66486;49.992;19.164;2023-06-14T12:00:15;98870.31;;;21.04
77414;BMP280;66486;49.992;19.164;2023-06-14T12:02:52;98859.84;;;20.97
77414;BMP280;66486;49.992;19.164;2023-06-14T12:05:20;98869.28;;;20.39
77414;BMP280;66486;49.992;19.164;2023-06-14T12:07:47;98867.72;;;20.32
77414;BMP280;66486;49.992;19.164;2023-06-14T12:10:14;98859.13;;;20.71
77414;BMP280;66486;49.992;19.164;2023-06-14T12:12:41;98851.50;;;21.76
77414;BMP280;66486;49.992;19.164;2023-06-14T12:15:08;98848.97;;;21.67
77414;BMP280;66486;49.992;19.164;2023-06-14T12:17:37;98850.25;;;21.77
77414;BMP280;66486;49.992;19.164;2023-06-14T12:20:09;98846.44;;;21.58
77414;BMP280;66486;49.992;19.164;2023-06-14T12:22:37;98850.41;;;20.41
77414;BMP280;66486;49.992;19.164;2023-06-14T12:25:04;98846.69;;;20.38
77414;BMP280;66486;49.992;19.164;2023-06-14T12:27:31;98848.44;;;20.16
77414;BMP280;66486;49.992;19.164;2023-06-14T12:30:01;98836.75;;;20.41
77414;BMP280;66486;49.992;19.164;2023-06-14T12:32:28;98840.97;;;20.68
77414;BMP280;66486;49.992;19.164;2023-06-14T12:34:54;98838.13;;;20.88
77414;BMP280;66486;49.992;19.164;2023-06-14T12:37:20;98837.56;;;21.20
77414;BMP280;66486;49.992;19.164;2023-06-14T12:39:46;98838.09;;;21.24
77414;BMP280;66486;49.992;19.164;2023-06-14T12:42:12;98838.28;;;21.15
77414;BMP280;66486;49.992;19.164;2023-06-14T12:44:40;98839.06;;;20.54
77414;BMP280;66486;49.992;19.164;2023-06-14T12:47:07;98839.69;;;20.37
77414;BMP280;66486;49.992;19.164;2023-06-14T12:49:33;98827.84;;;19.95
77414;BMP280;66486;49.992;19.164;2023-06-14T12:51:59;98828.34;;;19.99
77414;BMP280;66486;49.992;19.164;2023-06-14T12:54:25;98816.75;;;20.29
77414;BMP280;66486;49.992;19.164;2023-06-14T12:56:51;98825.50;;;20.96
77414;BMP280;66486;49.992;19.164;2023-06-14T12:59:18;98821.81;;;21.63
77414;BMP280;66486;49.992;19.164;2023-06-14T13:01:44;98826.63;;;21.79
77414;BMP280;66486;49.992;19.164;2023-06-14T13:04:10;98817.22;;;22.02
77414;BMP280;66486;49.992;19.164;2023-06-14T13:06:37;98825.19;;;22.28
77414;BMP280;66486;49.992;19.164;2023-06-14T13:09:03;98818.44;;;22.12
77414;BMP280;66486;49.992;19.164;2023-06-14T13:11:30;98815.56;;;21.52
77414;BMP280;66486;49.992;19.164;2023-06-14T13:13:56;98815.47;;;22.21
77414;BMP280;66486;49.992;19.164;2023-06-14T13:16:22;98820.44;;;22.28
77414;BMP280;66486;49.992;19.164;2023-06-14T13:18:48;98813.44;;;21.94
77414;BMP280;66486;49.992;19.164;2023-06-14T13:21:14;98814.16;;;21.78
77414;BMP280;66486;49.992;19.164;2023-06-14T13:23:40;98808.13;;;21.63
77414;BMP280;66486;49.992;19.164;2023-06-14T13:26:06;98813.72;;;22.13
77414;BMP280;66486;49.992;19.164;2023-06-14T13:28:32;98815.69;;;21.96
77414;BMP280;66486;49.992;19.164;2023-06-14T13:31:01;98816.03;;;21.45
77414;BMP280;66486;49.992;19.164;2023-06-14T13:33:27;98820.09;;;21.12
77414;BMP280;66486;49.992;19.164;2023-06-14T13:35:53;98816.06;;;20.97
77414;BMP280;66486;49.992;19.164;2023-06-14T13:38:19;98818.94;;;21.24
77414;BMP280;66486;49.992;19.164;2023-06-14T13:40:45;98814.13;;;21.67
77414;BMP280;66486;49.992;19.164;2023-06-14T13:43:11;98817.41;;;21.23
77414;BMP280;66486;49.992;19.164;2023-06-14T13:45:38;98809.31;;;20.61
77414;BMP280;66486;49.992;19.164;2023-06-14T13:48:04;98799.56;;;21.39
77414;BMP280;66486;49.992;19.164;2023-06-14T13:50:30;98811.81;;;21.44
77414;BMP280;66486;49.992;19.164;2023-06-14T13:52:56;98808.63;;;21.62
77414;BMP280;66486;49.992;19.164;2023-06-14T13:55:22;98803.16;;;21.62
77414;BMP280;66486;49.992;19.164;2023-06-14T13:57:48;98813.06;;;21.54
77414;BMP280;66486;49.992;19.164;2023-06-14T14:00:14;98806.63;;;21.62
77414;BMP280;66486;49.992;19.164;2023-06-14T14:02:40;98807.31;;;21.46
77414;BMP280;66486;49.992;19.164;2023-06-14T14:05:08;98809.69;;;21.86
77414;BMP280;66486;49.992;19.164;2023-06-14T14:07:34;98808.97;;;21.91
77414;BMP280;66486;49.992;19.164;2023-06-14T14:10:02;98813.47;;;22.05
77414;BMP280;66486;49.992;19.164;2023-06-14T14:12:28;98801.97;;;21.96